sensor_id;sensor_type;location;lat;lon;timestamp;pressure;altitude;pressure_sealevel;temperature;humidity
64343;BME280;50675;53.530;-6.312;2023-06-14T00:00:46;101101.63;;;21.03;51.66
64343;BME280;50675;53.530;-6.312;2023-06-14T00:03:39;101091.16;;;20.91;51.77
64343;BME280;50675;53.530;-6.312;2023-06-14T00:19:12;101106.91;;;20.58;52.16
64343;BME280;50675;53.530;-6.312;2023-06-14T00:31:20;101083.97;;;20.22;52.51
64343;BME280;50675;53.530;-6.312;2023-06-14T00:38:42;101082.31;;;20.07;52.67
64343;BME280;50675;53.530;-6.312;2023-06-14T00:42:27;101098.13;;;20.29;52.85
64343;BME280;50675;53.530;-6.312;2023-06-14T00:45:24;101089.75;;;20.20;52.95
64343;BME280;50675;53.530;-6.312;2023-06-14T02:43:28;101108.88;;;19.93;55.77
64343;BME280;50675;53.530;-6.312;2023-06-14T02:50:41;101124.00;;;19.90;55.52
64343;BME280;50675;53.530;-6.312;2023-06-14T03:07:00;101114.19;;;19.71;55.63
64343;BME280;50675;53.530;-6.312;2023-06-14T03:17:33;101118.47;;;19.58;55.87
64343;BME280;50675;53.530;-6.312;2023-06-14T04:06:39;101147.28;;;19.55;56.32
64343;BME280;50675;53.530;-6.312;2023-06-14T04:22:10;101166.31;;;19.65;56.25
64343;BME280;50675;53.530;-6.312;2023-06-14T04:29:47;101167.53;;;19.36;56.29
64343;BME280;50675;53.530;-6.312;2023-06-14T05:54:03;101223.19;;;20.81;55.49
64343;BME280;50675;53.530;-6.312;2023-06-14T05:57:05;101210.22;;;20.81;55.33
64343;BME280;50675;53.530;-6.312;2023-06-14T06:35:10;101230.00;;;25.57;51.87
64343;BME280;50675;53.530;-6.312;2023-06-14T06:38:27;101225.50;;;25.73;51.45
64343;BME280;50675;53.530;-6.312;2023-06-14T06:40:52;101217.50;;;25.80;51.68
64343;BME280;50675;53.530;-6.312;2023-06-14T06:43:20;101207.22;;;26.01;51.26
64343;BME280;50675;53.530;-6.312;2023-06-14T06:45:46;101226.41;;;26.27;50.68
64343;BME280;50675;53.530;-6.312;2023-06-14T06:48:12;101231.06;;;26.35;50.54
64343;BME280;50675;53.530;-6.312;2023-06-14T06:50:37;101230.88;;;26.52;50.40
64343;BME280;50675;53.530;-6.312;2023-06-14T06:53:04;101222.34;;;26.58;49.98
64343;BME280;50675;53.530;-6.312;2023-06-14T06:55:33;101220.44;;;26.70;49.64
64343;BME280;50675;53.530;-6.312;2023-06-14T06:57:59;101221.66;;;26.93;48.89
64343;BME280;50675;53.530;-6.312;2023-06-14T07:00:26;101215.53;;;27.00;48.66
64343;BME280;50675;53.530;-6.312;2023-06-14T07:02:52;101235.66;;;27.33;48.17
64343;BME280;50675;53.530;-6.312;2023-06-14T07:05:20;101236.91;;;27.24;47.90
64343;BME280;50675;53.530;-6.312;2023-06-14T07:07:46;101233.47;;;27.39;47.78
64343;BME280;50675;53.530;-6.312;2023-06-14T07:10:11;101247.38;;;27.51;47.25
64343;BME280;50675;53.530;-6.312;2023-06-14T07:12:37;101241.00;;;27.51;46.84
64343;BME280;50675;53.530;-6.312;2023-06-14T07:15:06;101250.31;;;27.70;46.62
64343;BME280;50675;53.530;-6.312;2023-06-14T07:17:33;101259.22;;;27.88;45.98
64343;BME280;50675;53.530;-6.312;2023-06-14T07:19:59;101251.00;;;27.92;45.99
64343;BME280;50675;53.530;-6.312;2023-06-14T07:22:26;101243.22;;;27.97;45.57
64343;BME280;50675;53.530;-6.312;2023-06-14T07:24:52;101259.44;;;27.95;45.45
64343;BME280;50675;53.530;-6.312;2023-06-14T07:27:17;101265.69;;;27.92;44.91
64343;BME280;50675;53.530;-6.312;2023-06-14T07:29:43;101255.16;;;27.85;44.92
64343;BME280;50675;53.530;-6.312;2023-06-14T07:32:11;101261.81;;;28.09;44.15
64343;BME280;50675;53.530;-6.312;2023-06-14T07:34:37;101268.81;;;28.03;44.15
64343;BME280;50675;53.530;-6.312;2023-06-14T07:37:03;101278.47;;;28.09;43.63
64343;BME280;50675;53.530;-6.312;2023-06-14T07:39:29;101281.03;;;28.14;43.50
64343;BME280;50675;53.530;-6.312;2023-06-14T07:41:54;101281.84;;;28.26;43.19
64343;BME280;50675;53.530;-6.312;2023-06-14T07:44:20;101283.47;;;28.15;42.96
64343;BME280;50675;53.530;-6.312;2023-06-14T07:46:46;101280.81;;;28.07;42.92
64343;BME280;50675;53.530;-6.312;2023-06-14T07:49:14;101289.59;;;28.21;42.47
64343;BME280;50675;53.530;-6.312;2023-06-14T07:51:40;101278.56;;;28.37;42.01
64343;BME280;50675;53.530;-6.312;2023-06-14T07:54:06;101281.72;;;28.23;42.11
64343;BME280;50675;53.530;-6.312;2023-06-14T07:56:34;101295.84;;;28.18;41.66
64343;BME280;50675;53.530;-6.312;2023-06-14T07:59:01;101283.47;;;28.15;41.38
64343;BME280;50675;53.530;-6.312;2023-06-14T08:01:26;101288.94;;;28.12;41.15
64343;BME280;50675;53.530;-6.312;2023-06-14T08:03:53;101285.00;;;28.13;40.84
64343;BME280;50675;53.530;-6.312;2023-06-14T08:06:19;101295.84;;;28.18;40.49
64343;BME280;50675;53.530;-6.312;2023-06-14T08:08:45;101293.06;;;28.30;40.64
64343;BME280;50675;53.530;-6.312;2023-06-14T08:11:11;101312.97;;;28.32;40.53
64343;BME280;50675;53.530;-6.312;2023-06-14T08:13:37;101303.94;;;28.23;39.98
64343;BME280;50675;53.530;-6.312;2023-06-14T08:16:03;101315.41;;;28.09;39.75
64343;BME280;50675;53.530;-6.312;2023-06-14T08:18:30;101317.16;;;28.02;39.67
64343;BME280;50675;53.530;-6.312;2023-06-14T08:20:56;101316.25;;;27.85;39.17
64343;BME280;50675;53.530;-6.312;2023-06-14T08:23:23;101317.53;;;27.64;39.12
64343;BME280;50675;53.530;-6.312;2023-06-14T08:25:49;101327.72;;;27.72;38.96
64343;BME280;50675;53.530;-6.312;2023-06-14T08:28:15;101319.97;;;27.53;38.57
64343;BME280;50675;53.530;-6.312;2023-06-14T08:30:44;101332.53;;;27.26;38.49
64343;BME280;50675;53.530;-6.312;2023-06-14T08:33:10;101347.09;;;26.90;37.79
64343;BME280;50675;53.530;-6.312;2023-06-14T08:35:38;101328.75;;;26.98;38.12
64343;BME280;50675;53.530;-6.312;2023-06-14T08:38:05;101340.88;;;26.73;37.98
64343;BME280;50675;53.530;-6.312;2023-06-14T08:40:30;101342.84;;;26.72;37.85
64343;BME280;50675;53.530;-6.312;2023-06-14T08:42:56;101338.72;;;26.58;37.69
64343;BME280;50675;53.530;-6.312;2023-06-14T08:45:23;101335.50;;;26.35;37.70
64343;BME280;50675;53.530;-6.312;2023-06-14T08:47:53;101343.75;;;25.93;37.55
64343;BME280;50675;53.530;-6.312;2023-06-14T08:50:24;101334.94;;;25.91;36.88
64343;BME280;50675;53.530;-6.312;2023-06-14T08:52:58;101329.56;;;25.65;37.11
64343;BME280;50675;53.530;-6.312;2023-06-14T08:55:29;101347.50;;;25.51;36.85
64343;BME280;50675;53.530;-6.312;2023-06-14T08:57:56;101353.53;;;25.44;36.58
64343;BME280;50675;53.530;-6.312;2023-06-14T09:00:26;101337.41;;;25.08;36.53
64343;BME280;50675;53.530;-6.312;2023-06-14T09:02:56;101349.53;;;25.24;36.84
64343;BME280;50675;53.530;-6.312;2023-06-14T09:05:25;101334.47;;;25.13;36.62
64343;BME280;50675;53.530;-6.312;2023-06-14T09:07:58;101350.06;;;25.18;36.04
64343;BME280;50675;53.530;-6.312;2023-06-14T09:10:27;101341.25;;;25.24;36.24
64343;BME280;50675;53.530;-6.312;2023-06-14T09:12:56;101330.34;;;25.19;36.14
64343;BME280;50675;53.530;-6.312;2023-06-14T09:15:22;101338.31;;;25.30;36.39
64343;BME280;50675;53.530;-6.312;2023-06-14T09:17:48;101346.63;;;25.21;36.25
64343;BME280;50675;53.530;-6.312;2023-06-14T09:20:26;101341.03;;;25.38;36.00
64343;BME280;50675;53.530;-6.312;2023-06-14T09:23:45;101339.50;;;25.11;36.54
64343;BME280;50675;53.530;-6.312;2023-06-14T09:26:16;101345.88;;;25.03;36.17
64343;BME280;50675;53.530;-6.312;2023-06-14T09:28:43;101353.03;;;24.96;35.76
64343;BME280;50675;53.530;-6.312;2023-06-14T09:31:11;101352.19;;;24.95;36.11
64343;BME280;50675;53.530;-6.312;2023-06-14T09:33:37;101355.47;;;24.89;35.71
64343;BME280;50675;53.530;-6.312;2023-06-14T09:36:04;101356.31;;;24.89;35.87
64343;BME280;50675;53.530;-6.312;2023-06-14T09:38:30;101348.31;;;24.96;35.98
64343;BME280;50675;53.530;-6.312;2023-06-14T09:40:58;101355.63;;;24.92;35.98
64343;BME280;50675;53.530;-6.312;2023-06-14T09:43:24;101363.91;;;25.01;35.93
64343;BME280;50675;53.530;-6.312;2023-06-14T09:45:53;101355.16;;;24.99;36.25
64343;BME280;50675;53.530;-6.312;2023-06-14T09:48:20;101359.50;;;25.00;35.73
64343;BME280;50675;53.530;-6.312;2023-06-14T09:50:46;101336.41;;;25.04;36.18
64343;BME280;50675;53.530;-6.312;2023-06-14T09:53:15;101349.44;;;25.04;35.72
64343;BME280;50675;53.530;-6.312;2023-06-14T09:55:42;101358.41;;;24.92;36.19
64343;BME280;50675;53.530;-6.312;2023-06-14T09:58:16;101347.66;;;24.65;35.87
64343;BME280;50675;53.530;-6.312;2023-06-14T10:00:43;101357.75;;;24.69;35.91
64343;BME280;50675;53.530;-6.312;2023-06-14T10:03:25;101352.06;;;24.66;35.70
64343;BME280;50675;53.530;-6.312;2023-06-14T10:05:53;101365.06;;;24.65;35.70
64343;BME280;50675;53.530;-6.312;2023-06-14T10:08:25;101357.91;;;24.73;36.14
64343;BME280;50675;53.530;-6.312;2023-06-14T10:10:53;101367.81;;;24.74;36.26
64343;BME280;50675;53.530;-6.312;2023-06-14T10:13:21;101359.53;;;24.65;35.98
64343;BME280;50675;53.530;-6.312;2023-06-14T10:15:55;101361.13;;;24.66;36.14
64343;BME280;50675;53.530;-6.312;2023-06-14T10:18:42;101349.94;;;24.63;35.76
64343;BME280;50675;53.530;-6.312;2023-06-14T10:33:58;101357.41;;;24.36;35.93
64343;BME280;50675;53.530;-6.312;2023-06-14T10:36:26;101351.38;;;24.26;35.78
64343;BME280;50675;53.530;-6.312;2023-06-14T10:39:17;101353.66;;;24.24;35.87
64343;BME280;50675;53.530;-6.312;2023-06-14T10:41:52;101379.00;;;24.26;35.74
64343;BME280;50675;53.530;-6.312;2023-06-14T10:46:48;101368.78;;;24.26;35.75
64343;BME280;50675;53.530;-6.312;2023-06-14T10:49:18;101364.81;;;24.10;35.83
64343;BME280;50675;53.530;-6.312;2023-06-14T10:51:51;101365.47;;;24.16;35.67
64343;BME280;50675;53.530;-6.312;2023-06-14T10:54:17;101359.63;;;24.09;35.79
64343;BME280;50675;53.530;-6.312;2023-06-14T10:56:50;101367.53;;;24.02;35.74
64343;BME280;50675;53.530;-6.312;2023-06-14T10:59:18;101359.28;;;24.02;36.08
64343;BME280;50675;53.530;-6.312;2023-06-14T11:04:47;101367.38;;;23.98;35.97
64343;BME280;50675;53.530;-6.312;2023-06-14T11:10:05;101353.75;;;24.10;35.96
64343;BME280;50675;53.530;-6.312;2023-06-14T11:12:36;101358.06;;;23.77;35.75
64343;BME280;50675;53.530;-6.312;2023-06-14T11:15:05;101355.66;;;23.84;36.00
64343;BME280;50675;53.530;-6.312;2023-06-14T11:33:02;101352.03;;;23.66;36.37
64343;BME280;50675;53.530;-6.312;2023-06-14T11:35:27;101352.09;;;23.92;36.72
64343;BME280;50675;53.530;-6.312;2023-06-14T11:37:54;101348.78;;;23.73;36.35
64343;BME280;50675;53.530;-6.312;2023-06-14T11:40:24;101359.03;;;23.81;36.56
64343;BME280;50675;53.530;-6.312;2023-06-14T11:42:59;101348.75;;;23.56;36.79
64343;BME280;50675;53.530;-6.312;2023-06-14T11:45:25;101349.56;;;23.56;36.79
64343;BME280;50675;53.530;-6.312;2023-06-14T11:47:51;101336.09;;;23.54;36.73
64343;BME280;50675;53.530;-6.312;2023-06-14T11:50:16;101347.56;;;23.48;36.71
64343;BME280;50675;53.530;-6.312;2023-06-14T11:52:42;101336.00;;;23.37;36.96
64343;BME280;50675;53.530;-6.312;2023-06-14T11:55:08;101333.28;;;23.46;36.94
64343;BME280;50675;53.530;-6.312;2023-06-14T11:57:35;101329.97;;;23.66;36.99
64343;BME280;50675;53.530;-6.312;2023-06-14T12:00:06;101329.56;;;23.50;37.17
64343;BME280;50675;53.530;-6.312;2023-06-14T12:02:38;101327.94;;;23.49;37.10
64343;BME280;50675;53.530;-6.312;2023-06-14T12:05:06;101335.78;;;23.56;37.18
64343;BME280;50675;53.530;-6.312;2023-06-14T12:07:38;101333.69;;;23.62;37.24
64343;BME280;50675;53.530;-6.312;2023-06-14T12:10:08;101323.25;;;23.50;37.07
64343;BME280;50675;53.530;-6.312;2023-06-14T12:12:38;101330.53;;;23.46;37.09
64343;BME280;50675;53.530;-6.312;2023-06-14T12:15:05;101335.34;;;23.40;37.13
64343;BME280;50675;53.530;-6.312;2023-06-14T12:17:32;101337.41;;;23.35;36.93
64343;BME280;50675;53.530;-6.312;2023-06-14T12:19:59;101339.00;;;23.27;36.94
64343;BME280;50675;53.530;-6.312;2023-06-14T12:23:08;101327.44;;;23.17;37.21
64343;BME280;50675;53.530;-6.312;2023-06-14T12:25:36;101328.47;;;23.29;37.41
64343;BME280;50675;53.530;-6.312;2023-06-14T12:28:09;101334.59;;;23.48;37.15
64343;BME280;50675;53.530;-6.312;2023-06-14T12:30:36;101347.50;;;23.39;37.34
64343;BME280;50675;53.530;-6.312;2023-06-14T12:33:11;101346.53;;;23.44;37.41
64343;BME280;50675;53.530;-6.312;2023-06-14T12:36:39;101327.84;;;23.32;37.06
64343;BME280;50675;53.530;-6.312;2023-06-14T12:39:33;101335.84;;;23.42;37.25
64343;BME280;50675;53.530;-6.312;2023-06-14T12:55:11;101336.28;;;23.36;37.64
64343;BME280;50675;53.530;-6.312;2023-06-14T13:02:40;101320.72;;;23.31;37.66
64343;BME280;50675;53.530;-6.312;2023-06-14T13:06:31;101335.41;;;23.18;37.68
64343;BME280;50675;53.530;-6.312;2023-06-14T13:30:04;101332.19;;;23.25;38.00
64343;BME280;50675;53.530;-6.312;2023-06-14T13:32:30;101333.72;;;23.08;37.77
64343;BME280;50675;53.530;-6.312;2023-06-14T13:34:56;101335.13;;;23.28;37.75
64343;BME280;50675;53.530;-6.312;2023-06-14T13:37:22;101332.06;;;23.38;37.98
64343;BME280;50675;53.530;-6.312;2023-06-14T13:39:48;101330.66;;;23.41;38.02
64343;BME280;50675;53.530;-6.312;2023-06-14T13:42:13;101339.13;;;23.44;38.25
64343;BME280;50675;53.530;-6.312;2023-06-14T13:44:39;101328.78;;;23.59;38.20
64343;BME280;50675;53.530;-6.312;2023-06-14T13:47:05;101326.31;;;23.48;38.24
64343;BME280;50675;53.530;-6.312;2023-06-14T13:49:31;101318.53;;;23.50;38.18
64343;BME280;50675;53.530;-6.312;2023-06-14T13:51:57;101332.66;;;23.49;38.11
64343;BME280;50675;53.530;-6.312;2023-06-14T13:54:23;101324.41;;;23.58;37.86
64343;BME280;50675;53.530;-6.312;2023-06-14T13:56:49;101342.41;;;23.55;38.20
64343;BME280;50675;53.530;-6.312;2023-06-14T13:59:14;101324.19;;;23.45;38.02
64343;BME280;50675;53.530;-6.312;2023-06-14T14:01:41;101328.94;;;23.53;38.15
64343;BME280;50675;53.530;-6.312;2023-06-14T14:04:06;101326.50;;;23.52;38.08
64343;BME280;50675;53.530;-6.312;2023-06-14T14:06:32;101325.88;;;23.55;38.00
64343;BME280;50675;53.530;-6.312;2023-06-14T14:08:58;101326.03;;;23.59;38.15
64343;BME280;50675;53.530;-6.312;2023-06-14T14:11:24;101319.38;;;23.51;38.31
64343;BME280;50675;53.530;-6.312;2023-06-14T14:13:50;101321.63;;;23.49;38.32
64343;BME280;50675;53.530;-6.312;2023-06-14T14:16:16;101320.56;;;23.36;37.90
64343;BME280;50675;53.530;-6.312;2023-06-14T14:18:41;101320.06;;;23.34;38.33
64343;BME280;50675;53.530;-6.312;2023-06-14T14:21:07;101318.16;;;23.43;38.04
64343;BME280;50675;53.530;-6.312;2023-06-14T14:23:33;101322.66;;;23.62;38.12
64343;BME280;50675;53.530;-6.312;2023-06-14T14:25:58;101322.28;;;23.54;38.47
64343;BME280;50675;53.530;-6.312;2023-06-14T14:28:28;101311.66;;;23.39;38.18
64343;BME280;50675;53.530;-6.312;2023-06-14T14:30:54;101293.91;;;23.23;38.13
64343;BME280;50675;53.530;-6.312;2023-06-14T14:33:20;101302.00;;;23.20;38.26
64343;BME280;50675;53.530;-6.312;2023-06-14T14:35:46;101297.53;;;23.32;38.28
64343;BME280;50675;53.530;-6.312;2023-06-14T14:38:12;101302.97;;;23.46;38.49
64343;BME280;50675;53.530;-6.312;2023-06-14T14:40:39;101312.22;;;23.50;38.03
64343;BME280;50675;53.530;-6.312;2023-06-14T14:43:06;101297.91;;;23.48;38.04
64343;BME280;50675;53.530;-6.312;2023-06-14T14:45:31;101295.66;;;23.50;38.60
64343;BME280;50675;53.530;-6.312;2023-06-14T14:47:57;101289.47;;;23.44;38.35
64343;BME280;50675;53.530;-6.312;2023-06-14T14:50:24;101295.66;;;23.50;38.38
64343;BME280;50675;53.530;-6.312;2023-06-14T14:52:50;101295.22;;;23.57;38.20
64343;BME280;50675;53.530;-6.312;2023-06-14T14:55:16;101290.69;;;23.61;38.34
64343;BME280;50675;53.530;-6.312;2023-06-14T14:57:41;101294.56;;;23.60;38.37
64343;BME280;50675;53.530;-6.312;2023-06-14T15:00:08;101291.38;;;23.83;38.20
64343;BME280;50675;53.530;-6.312;2023-06-14T15:02:34;101294.59;;;23.77;38.13
64343;BME280;50675;53.530;-6.312;2023-06-14T15:05:00;101294.47;;;23.82;38.67
64343;BME280;50675;53.530;-6.312;2023-06-14T15:07:27;101293.78;;;23.68;38.52
64343;BME280;50675;53.530;-6.312;2023-06-14T15:09:54;101299.34;;;23.85;38.23
64343;BME280;50675;53.530;-6.312;2023-06-14T15:12:19;101294.66;;;23.85;38.34
64343;BME280;50675;53.530;-6.312;2023-06-14T15:14:51;101299.81;;;23.87;38.08
64343;BME280;50675;53.530;-6.312;2023-06-14T15:17:18;101301.78;;;23.95;38.12
64343;BME280;50675;53.530;-6.312;2023-06-14T15:19:44;101291.06;;;23.85;38.09
64343;BME280;50675;53.530;-6.312;2023-06-14T15:22:10;101283.91;;;23.75;38.00
64343;BME280;50675;53.530;-6.312;2023-06-14T15:24:36;101290.41;;;23.88;38.11
64343;BME280;50675;53.530;-6.312;2023-06-14T15:27:01;101285.69;;;23.80;38.14
64343;BME280;50675;53.530;-6.312;2023-06-14T15:29:28;101292.19;;;23.84;38.25
64343;BME280;50675;53.530;-6.312;2023-06-14T15:31:54;101288.28;;;23.76;37.96
64343;BME280;50675;53.530;-6.312;2023-06-14T15:34:20;101287.63;;;23.71;38.02
64343;BME280;50675;53.530;-6.312;2023-06-14T15:36:46;101287.03;;;24.00;38.04
64343;BME280;50675;53.530;-6.312;2023-06-14T15:39:12;101289.56;;;23.70;37.86
64343;BME280;50675;53.530;-6.312;2023-06-14T15:41:37;101281.47;;;23.91;37.94
64343;BME280;50675;53.530;-6.312;2023-06-14T15:44:03;101288.94;;;23.90;37.77
64343;BME280;50675;53.530;-6.312;2023-06-14T15:46:29;101294.31;;;23.87;38.16
64343;BME280;50675;53.530;-6.312;2023-06-14T15:48:55;101293.00;;;23.84;38.05
64343;BME280;50675;53.530;-6.312;2023-06-14T15:51:20;101286.69;;;23.84;37.58
64343;BME280;50675;53.530;-6.312;2023-06-14T15:53:46;101288.47;;;23.97;37.59
64343;BME280;50675;53.530;-6.312;2023-06-14T15:56:12;101281.84;;;23.98;37.89
64343;BME280;50675;53.530;-6.312;2023-06-14T15:58:37;101268.19;;;24.02;37.53
64343;BME280;50675;53.530;-6.312;2023-06-14T16:01:03;101261.53;;;23.94;37.56
64343;BME280;50675;53.530;-6.312;2023-06-14T16:03:29;101279.91;;;24.07;37.66
64343;BME280;50675;53.530;-6.312;2023-06-14T16:05:54;101279.91;;;24.07;37.34
64343;BME280;50675;53.530;-6.312;2023-06-14T16:08:20;101274.19;;;23.95;37.50
64343;BME280;50675;53.530;-6.312;2023-06-14T16:10:46;101281.31;;;23.96;37.64
64343;BME280;50675;53.530;-6.312;2023-06-14T16:13:11;101277.13;;;23.90;37.65
64343;BME280;50675;53.530;-6.312;2023-06-14T16:15:37;101265.59;;;23.88;37.43
64343;BME280;50675;53.530;-6.312;2023-06-14T16:18:03;101276.13;;;23.86;37.43
64343;BME280;50675;53.530;-6.312;2023-06-14T16:20:28;101275.81;;;23.96;37.24
64343;BME280;50675;53.530;-6.312;2023-06-14T16:22:54;101276.31;;;23.89;37.42
64343;BME280;50675;53.530;-6.312;2023-06-14T16:25:20;101274.84;;;23.83;37.02
64343;BME280;50675;53.530;-6.312;2023-06-14T16:27:46;101277.75;;;23.95;37.48
64343;BME280;50675;53.530;-6.312;2023-06-14T16:30:12;101284.59;;;23.98;37.34
64343;BME280;50675;53.530;-6.312;2023-06-14T16:32:38;101271.75;;;23.93;37.47
64343;BME280;50675;53.530;-6.312;2023-06-14T16:35:04;101288.31;;;23.85;37.49
64343;BME280;50675;53.530;-6.312;2023-06-14T16:37:29;101259.69;;;23.72;37.39
64343;BME280;50675;53.530;-6.312;2023-06-14T16:39:55;101282.28;;;23.83;37.45
64343;BME280;50675;53.530;-6.312;2023-06-14T16:42:21;101275.28;;;23.68;37.23
64343;BME280;50675;53.530;-6.312;2023-06-14T16:44:46;101274.13;;;23.61;37.12
64343;BME280;50675;53.530;-6.312;2023-06-14T16:47:12;101289.50;;;23.53;37.06
64343;BME280;50675;53.530;-6.312;2023-06-14T16:49:38;101273.78;;;23.53;37.22
64343;BME280;50675;53.530;-6.312;2023-06-14T16:52:04;101274.16;;;23.69;37.35
64343;BME280;50675;53.530;-6.312;2023-06-14T16:54:30;101271.69;;;23.59;37.15
64343;BME280;50675;53.530;-6.312;2023-06-14T16:56:55;101271.84;;;23.63;37.25
64343;BME280;50675;53.530;-6.312;2023-06-14T16:59:21;101279.28;;;23.53;37.19
64343;BME280;50675;53.530;-6.312;2023-06-14T17:01:50;101268.91;;;23.50;37.38
64343;BME280;50675;53.530;-6.312;2023-06-14T17:04:16;101262.34;;;23.38;37.34
64343;BME280;50675;53.530;-6.312;2023-06-14T17:06:42;101272.78;;;23.49;37.24
64343;BME280;50675;53.530;-6.312;2023-06-14T17:09:07;101258.84;;;23.46;37.28
64343;BME280;50675;53.530;-6.312;2023-06-14T17:11:33;101268.09;;;23.50;37.15
64343;BME280;50675;53.530;-6.312;2023-06-14T17:13:59;101263.22;;;23.47;37.13
64343;BME280;50675;53.530;-6.312;2023-06-14T17:16:25;101262.03;;;23.39;36.95
64343;BME280;50675;53.530;-6.312;2023-06-14T17:18:51;101267.13;;;23.24;37.13
64343;BME280;50675;53.530;-6.312;2023-06-14T17:21:17;101264.72;;;23.22;37.29
64343;BME280;50675;53.530;-6.312;2023-06-14T17:23:43;101258.38;;;23.13;36.84
64343;BME280;50675;53.530;-6.312;2023-06-14T17:26:09;101266.00;;;23.16;37.01
64343;BME280;50675;53.530;-6.312;2023-06-14T17:28:35;101265.50;;;23.14;36.72
64343;BME280;50675;53.530;-6.312;2023-06-14T17:31:07;101257.88;;;23.20;37.01
64343;BME280;50675;53.530;-6.312;2023-06-14T17:33:56;101258.88;;;23.24;36.85
64343;BME280;50675;53.530;-6.312;2023-06-14T17:36:23;101264.97;;;23.03;37.01
64343;BME280;50675;53.530;-6.312;2023-06-14T17:38:48;101254.28;;;23.10;37.23
64343;BME280;50675;53.530;-6.312;2023-06-14T17:41:17;101260.13;;;23.09;37.05
64343;BME280;50675;53.530;-6.312;2023-06-14T17:43:42;101265.44;;;23.05;36.98
64343;BME280;50675;53.530;-6.312;2023-06-14T17:46:09;101271.09;;;23.00;36.99
64343;BME280;50675;53.530;-6.312;2023-06-14T17:48:35;101259.13;;;23.05;37.01
64343;BME280;50675;53.530;-6.312;2023-06-14T17:51:05;101264.41;;;22.93;37.10
64343;BME280;50675;53.530;-6.312;2023-06-14T17:53:32;101255.19;;;22.97;37.11
64343;BME280;50675;53.530;-6.312;2023-06-14T17:55:58;101268.47;;;22.95;37.06
64343;BME280;50675;53.530;-6.312;2023-06-14T17:58:24;101259.34;;;23.17;37.13
64343;BME280;50675;53.530;-6.312;2023-06-14T18:00:50;101255.19;;;22.97;37.23
64343;BME280;50675;53.530;-6.312;2023-06-14T18:03:17;101260.16;;;22.87;37.29
64343;BME280;50675;53.530;-6.312;2023-06-14T18:05:43;101261.75;;;22.79;37.52
64343;BME280;50675;53.530;-6.312;2023-06-14T18:08:10;101268.75;;;22.85;37.39
64343;BME280;50675;53.530;-6.312;2023-06-14T18:10:36;101269.19;;;22.79;37.23
64343;BME280;50675;53.530;-6.312;2023-06-14T18:13:03;101267.09;;;22.76;37.55
64343;BME280;50675;53.530;-6.312;2023-06-14T18:15:29;101265.66;;;22.87;37.65
64343;BME280;50675;53.530;-6.312;2023-06-14T18:17:55;101283.59;;;22.76;37.68
64343;BME280;50675;53.530;-6.312;2023-06-14T18:20:22;101261.78;;;22.88;37.95
64343;BME280;50675;53.530;-6.312;2023-06-14T18:22:48;101264.38;;;22.84;37.82
64343;BME280;50675;53.530;-6.312;2023-06-14T18:25:15;101272.00;;;22.87;37.81
64343;BME280;50675;53.530;-6.312;2023-06-14T18:27:41;101271.44;;;22.54;38.03
64343;BME280;50675;53.530;-6.312;2023-06-14T18:30:08;101262.91;;;22.64;37.91
64343;BME280;50675;53.530;-6.312;2023-06-14T18:32:34;101280.50;;;22.55;37.93
64343;BME280;50675;53.530;-6.312;2023-06-14T18:35:01;101273.38;;;22.54;38.11
64343;BME280;50675;53.530;-6.312;2023-06-14T18:37:26;101270.78;;;22.57;38.27
64343;BME280;50675;53.530;-6.312;2023-06-14T18:39:53;101266.13;;;22.36;38.28
64343;BME280;50675;53.530;-6.312;2023-06-14T18:42:19;101268.56;;;22.37;38.30
64343;BME280;50675;53.530;-6.312;2023-06-14T18:44:46;101265.53;;;22.25;38.60
64343;BME280;50675;53.530;-6.312;2023-06-14T18:47:12;101261.91;;;22.16;38.47
64343;BME280;50675;53.530;-6.312;2023-06-14T18:49:39;101272.38;;;22.28;38.71
64343;BME280;50675;53.530;-6.312;2023-06-14T18:52:06;101274.50;;;22.31;38.55
64343;BME280;50675;53.530;-6.312;2023-06-14T18:54:32;101270.03;;;22.21;38.77
64343;BME280;50675;53.530;-6.312;2023-06-14T18:56:58;101277.59;;;22.15;39.01
64343;BME280;50675;53.530;-6.312;2023-06-14T18:59:25;101276.22;;;22.04;38.78
64343;BME280;50675;53.530;-6.312;2023-06-14T19:01:51;101284.78;;;22.03;39.27
64343;BME280;50675;53.530;-6.312;2023-06-14T19:04:17;101281.28;;;22.11;39.05
64343;BME280;50675;53.530;-6.312;2023-06-14T19:06:43;101289.75;;;22.01;39.21
64343;BME280;50675;53.530;-6.312;2023-06-14T19:09:08;101286.00;;;21.97;39.29
64343;BME280;50675;53.530;-6.312;2023-06-14T19:11:34;101284.38;;;21.96;39.40
64343;BME280;50675;53.530;-6.312;2023-06-14T19:14:00;101283.31;;;21.92;39.71
64343;BME280;50675;53.530;-6.312;2023-06-14T19:16:25;101288.56;;;21.93;39.47
64343;BME280;50675;53.530;-6.312;2023-06-14T19:18:51;101291.19;;;21.85;39.52
64343;BME280;50675;53.530;-6.312;2023-06-14T19:21:17;101293.22;;;21.93;39.89
64343;BME280;50675;53.530;-6.312;2023-06-14T19:23:43;101281.69;;;21.91;39.96
64343;BME280;50675;53.530;-6.312;2023-06-14T19:26:09;101287.81;;;21.88;39.83
64343;BME280;50675;53.530;-6.312;2023-06-14T19:28:35;101292.22;;;21.89;40.06
64343;BME280;50675;53.530;-6.312;2023-06-14T22:13:50;101342.25;;;17.88;46.09
64343;BME280;50675;53.530;-6.312;2023-06-14T22:16:34;101330.88;;;17.71;46.13
64343;BME280;50675;53.530;-6.312;2023-06-14T22:27:03;101329.75;;;17.77;46.71
64343;BME280;50675;53.530;-6.312;2023-06-14T22:30:33;101321.59;;;17.72;46.76
64343;BME280;50675;53.530;-6.312;2023-06-14T22:57:11;101323.81;;;17.34;47.19
64343;BME280;50675;53.530;-6.312;2023-06-14T23:43:14;101324.47;;;16.76;48.26
64343;BME280;50675;53.530;-6.312;2023-06-14T23:49:54;101314.63;;;16.59;48.46
64343;BME280;50675;53.530;-6.312;2023-06-14T23:52:58;101320.66;;;16.72;48.40
64343;BME280;50675;53.530;-6.312;2023-06-14T23:59:56;101331.28;;;16.78;48.59
